Time;durP1;ratioP1;P1;durP2;ratioP2;P2;SDS_P1;SDS_P2;PMS_P1;PMS_P2;Temp;Humidity;BMP_temperature;BMP_pressure;BME280_temperature;BME280_humidity;BME280_pressure;Samples;Min_cycle;Max_cycle;Signal;HPM_P1;HPM_P2
2021/07/07 00:00:19;;;;;;;6.07;2.70;;;17.30;90.10;;;;;;4936379;29;20114;-86
2021/07/07 00:02:45;;;;;;;9.55;2.47;;;17.20;90.00;;;;;;4953255;28;20034;-87
2021/07/07 00:05:11;;;;;;;6.10;2.30;;;17.20;89.10;;;;;;4953213;29;20028;-86
2021/07/07 00:07:37;;;;;;;8.30;2.75;;;17.20;88.90;;;;;;4953016;28;20027;-87
2021/07/07 00:10:03;;;;;;;7.10;2.40;;;17.20;90.00;;;;;;4936955;29;20037;-88
2021/07/07 00:12:28;;;;;;;6.65;2.38;;;17.20;89.10;;;;;;4937170;29;20023;-87
2021/07/07 00:15:12;;;;;;;5.65;2.47;;;17.20;90.10;;;;;;4936907;29;20443;-87
2021/07/07 00:17:38;;;;;;;7.68;3.33;;;17.20;89.80;;;;;;4936579;29;20495;-87
2021/07/07 00:20:07;;;;;;;12.90;2.60;;;17.10;90.50;;;;;;4936625;29;20499;-87
2021/07/07 00:22:33;;;;;;;5.78;2.30;;;17.20;90.60;;;;;;4936009;29;20039;-87
2021/07/07 00:24:58;;;;;;;8.55;2.85;;;17.10;90.00;;;;;;4936499;29;20023;-87
2021/07/07 00:27:24;;;;;;;8.20;2.30;;;17.10;90.30;;;;;;4936465;29;20055;-88
2021/07/07 00:29:51;;;;;;;9.77;2.95;;;17.10;89.00;;;;;;4936708;29;20078;-89
2021/07/07 00:32:18;;;;;;;5.93;2.83;;;17.10;89.70;;;;;;4920252;29;20404;-87
2021/07/07 00:34:44;;;;;;;9.43;2.55;;;17.10;89.20;;;;;;4949455;29;20114;-87
2021/07/07 00:37:10;;;;;;;8.88;2.88;;;17.10;89.00;;;;;;4936403;29;20509;-87
2021/07/07 00:39:35;;;;;;;10.75;3.17;;;17.10;88.60;;;;;;4952276;29;20031;-87
2021/07/07 00:42:01;;;;;;;6.57;2.50;;;17.00;89.20;;;;;;4952314;29;20024;-88
2021/07/07 00:44:26;;;;;;;10.85;2.55;;;17.00;89.90;;;;;;4933274;29;20032;-87
2021/07/07 00:46:52;;;;;;;7.30;3.08;;;17.00;90.00;;;;;;4933450;29;20056;-87
2021/07/07 00:49:17;;;;;;;10.38;2.67;;;16.90;89.60;;;;;;4951866;28;20027;-87
2021/07/07 00:51:43;;;;;;;7.03;2.70;;;16.90;89.10;;;;;;4952109;29;20482;-87
2021/07/07 00:54:08;;;;;;;7.88;2.90;;;16.90;89.60;;;;;;4936528;29;20023;-87
2021/07/07 00:56:35;;;;;;;12.82;3.00;;;16.90;89.50;;;;;;4936313;29;20118;-88
2021/07/07 00:59:00;;;;;;;6.63;3.45;;;16.80;89.90;;;;;;4936098;29;20027;-87
2021/07/07 01:01:26;;;;;;;9.85;3.58;;;16.80;90.00;;;;;;4935901;29;20027;-87
2021/07/07 01:03:51;;;;;;;9.45;3.47;;;16.80;90.00;;;;;;4921238;29;20036;-87
2021/07/07 01:06:17;;;;;;;7.07;2.95;;;16.70;90.10;;;;;;4951816;28;20035;-87
2021/07/07 01:08:42;;;;;;;9.80;3.42;;;16.80;90.00;;;;;;4924449;29;20039;-87
2021/07/07 01:11:08;;;;;;;6.65;3.00;;;16.80;89.70;;;;;;4951529;28;20036;-87
2021/07/07 01:13:33;;;;;;;9.88;3.20;;;16.80;90.00;;;;;;4926406;29;20119;-87
2021/07/07 01:15:59;;;;;;;7.57;3.42;;;16.80;89.70;;;;;;4952584;28;20028;-89
2021/07/07 01:18:24;;;;;;;14.30;4.22;;;16.70;89.30;;;;;;4963407;28;20734;-87
2021/07/07 01:20:50;;;;;;;12.55;3.75;;;16.80;90.20;;;;;;4920781;29;20032;-87
2021/07/07 01:23:15;;;;;;;11.55;3.13;;;16.70;90.00;;;;;;4938952;29;20118;-86
2021/07/07 01:25:41;;;;;;;10.50;4.00;;;16.70;90.00;;;;;;4939189;29;20031;-87
2021/07/07 01:28:07;;;;;;;8.35;3.42;;;16.70;89.90;;;;;;4937940;29;20028;-87
2021/07/07 01:30:32;;;;;;;8.45;3.33;;;16.70;90.40;;;;;;4919896;29;20028;-87
2021/07/07 01:32:58;;;;;;;8.02;3.75;;;16.60;90.60;;;;;;4920831;29;20058;-87
2021/07/07 01:35:23;;;;;;;14.02;3.88;;;16.60;90.60;;;;;;4920789;29;20023;-89
2021/07/07 01:37:49;;;;;;;8.95;3.08;;;16.70;90.30;;;;;;4935918;28;20039;-87
2021/07/07 01:40:18;;;;;;;10.98;3.78;;;16.70;90.10;;;;;;4939900;29;20031;-87
2021/07/07 01:42:43;;;;;;;10.38;3.85;;;16.70;90.70;;;;;;4939905;29;20131;-87
2021/07/07 01:45:10;;;;;;;10.27;4.22;;;16.70;90.30;;;;;;4938662;28;20483;-87
2021/07/07 01:47:35;;;;;;;7.25;3.65;;;16.70;90.20;;;;;;4939376;29;20035;-88
2021/07/07 01:50:01;;;;;;;12.63;3.22;;;16.70;90.70;;;;;;4939574;29;20394;-87
2021/07/07 01:52:27;;;;;;;8.38;3.50;;;16.80;90.30;;;;;;4927820;29;20038;-87
2021/07/07 01:54:52;;;;;;;8.98;4.35;;;16.80;90.40;;;;;;4951716;28;20078;-87
2021/07/07 01:57:18;;;;;;;7.82;3.53;;;16.80;90.40;;;;;;4951656;29;20024;-87
2021/07/07 01:59:43;;;;;;;14.00;4.03;;;16.80;90.50;;;;;;4954617;29;20035;-87
2021/07/07 02:02:09;;;;;;;11.90;4.50;;;16.80;90.40;;;;;;4955248;29;20031;-87
2021/07/07 02:04:34;;;;;;;11.95;4.18;;;16.80;90.00;;;;;;4939373;29;20027;-87
2021/07/07 02:07:00;;;;;;;13.00;4.68;;;16.80;90.60;;;;;;4939129;29;20023;-88
2021/07/07 02:09:26;;;;;;;13.35;3.97;;;16.80;90.70;;;;;;4954988;28;20063;-87
2021/07/07 02:11:51;;;;;;;14.23;4.40;;;16.80;89.90;;;;;;4931598;29;20020;-87
2021/07/07 02:14:17;;;;;;;18.27;4.05;;;16.80;89.20;;;;;;4970487;28;20024;-87
2021/07/07 02:16:43;;;;;;;18.15;4.57;;;16.80;89.80;;;;;;4939095;29;20768;-87
2021/07/07 02:19:08;;;;;;;10.45;4.47;;;16.80;90.00;;;;;;4938783;29;20475;-87
2021/07/07 02:21:34;;;;;;;17.00;4.25;;;16.80;90.10;;;;;;4939055;29;20510;-88
2021/07/07 02:23:59;;;;;;;19.15;5.95;;;16.80;90.00;;;;;;4938259;29;20023;-88
2021/07/07 02:26:25;;;;;;;14.30;6.63;;;16.80;90.00;;;;;;4938933;29;20031;-87
2021/07/07 02:28:50;;;;;;;17.73;9.23;;;16.80;90.30;;;;;;4934536;29;20146;-86
2021/07/07 02:31:16;;;;;;;23.13;12.13;;;16.80;89.70;;;;;;4931419;29;20402;-86
2021/07/07 02:33:41;;;;;;;16.52;9.63;;;16.80;91.00;;;;;;4943181;29;20035;-87
2021/07/07 02:36:07;;;;;;;27.10;10.32;;;16.80;89.50;;;;;;4936469;29;20287;-86
2021/07/07 02:38:33;;;;;;;22.42;9.05;;;16.80;89.20;;;;;;4950242;28;20039;-88
2021/07/07 02:40:58;;;;;;;16.75;7.78;;;16.80;90.40;;;;;;4935022;29;20030;-88
2021/07/07 02:43:24;;;;;;;20.73;6.22;;;16.70;90.20;;;;;;4934572;29;20038;-87
2021/07/07 02:45:50;;;;;;;12.75;4.72;;;16.70;89.70;;;;;;4935669;29;20027;-87
2021/07/07 02:48:15;;;;;;;10.57;5.05;;;16.70;89.40;;;;;;4952800;29;20161;-89
2021/07/07 02:50:41;;;;;;;11.65;4.38;;;16.70;89.30;;;;;;4950499;29;20483;-89
2021/07/07 02:53:07;;;;;;;11.70;4.65;;;16.70;88.80;;;;;;4950650;28;20031;-89
2021/07/07 02:55:33;;;;;;;12.13;4.25;;;16.70;89.10;;;;;;4952758;28;20030;-89
2021/07/07 02:58:00;;;;;;;15.25;4.38;;;16.70;90.00;;;;;;4934149;28;20035;-88
2021/07/07 03:00:42;;;;;;;11.75;4.97;;;16.70;89.80;;;;;;4934808;29;20027;-88
2021/07/07 03:03:25;;;;;;;12.60;4.40;;;16.70;90.00;;;;;;4951137;28;20027;-88
2021/07/07 03:05:58;;;;;;;13.18;3.92;;;16.60;88.90;;;;;;4952954;28;20121;-87
2021/07/07 03:08:28;;;;;;;12.60;4.38;;;16.60;88.60;;;;;;4954050;28;20027;-87
2021/07/07 03:10:53;;;;;;;16.90;4.55;;;16.70;90.40;;;;;;4938528;29;20126;-88
2021/07/07 03:13:19;;;;;;;10.43;3.90;;;16.60;90.10;;;;;;4938173;29;20118;-87
2021/07/07 03:15:45;;;;;;;10.63;4.75;;;16.60;89.40;;;;;;4954119;28;20038;-88
2021/07/07 03:18:10;;;;;;;16.90;4.38;;;16.60;89.70;;;;;;4953601;29;20043;-87
2021/07/07 03:20:37;;;;;;;11.07;3.95;;;16.60;90.20;;;;;;4953272;28;20031;-87
2021/07/07 03:23:02;;;;;;;13.77;4.30;;;16.60;90.30;;;;;;4937467;29;20027;-87
2021/07/07 03:25:28;;;;;;;8.95;4.05;;;16.60;90.10;;;;;;4937136;29;20068;-87
2021/07/07 03:27:54;;;;;;;14.80;4.05;;;16.60;89.30;;;;;;4937109;29;20031;-87
2021/07/07 03:30:20;;;;;;;12.77;3.90;;;16.60;88.90;;;;;;4937356;29;20031;-87
2021/07/07 03:32:45;;;;;;;13.02;4.00;;;16.60;88.80;;;;;;4937352;29;20027;-87
2021/07/07 03:35:11;;;;;;;14.90;4.20;;;16.60;89.90;;;;;;4949499;28;20034;-88
2021/07/07 03:37:37;;;;;;;9.25;3.97;;;16.60;89.60;;;;;;4933720;29;20023;-88
2021/07/07 03:40:03;;;;;;;19.30;4.38;;;16.60;90.00;;;;;;4933710;29;20111;-86
2021/07/07 03:42:29;;;;;;;14.13;4.32;;;16.60;89.60;;;;;;4950143;28;20110;-87
2021/07/07 03:45:03;;;;;;;8.18;3.75;;;16.60;88.80;;;;;;4936626;28;20595;-87
2021/07/07 03:47:29;;;;;;;13.02;4.38;;;16.60;90.30;;;;;;4952798;28;20038;-87
2021/07/07 03:49:56;;;;;;;13.32;4.70;;;16.60;90.00;;;;;;4935316;29;20031;-89
2021/07/07 03:52:21;;;;;;;8.80;3.90;;;16.60;90.80;;;;;;4935123;29;20507;-88
2021/07/07 03:54:47;;;;;;;13.00;4.25;;;16.60;89.30;;;;;;4935192;29;20038;-88
2021/07/07 03:57:12;;;;;;;16.10;5.00;;;16.60;89.10;;;;;;4915792;29;20372;-87
2021/07/07 03:59:38;;;;;;;16.98;4.47;;;16.60;90.30;;;;;;4951755;29;20023;-88
2021/07/07 04:02:03;;;;;;;11.75;4.20;;;16.60;89.70;;;;;;4937066;29;20028;-87
2021/07/07 04:04:29;;;;;;;15.65;4.15;;;16.60;90.30;;;;;;4935273;29;20027;-86
2021/07/07 04:06:58;;;;;;;16.75;5.07;;;16.70;90.10;;;;;;4933994;29;20038;-88
2021/07/07 04:09:30;;;;;;;9.30;4.57;;;16.60;90.00;;;;;;4920319;29;20028;-88
2021/07/07 04:11:56;;;;;;;13.60;4.90;;;16.60;90.00;;;;;;4945272;28;20087;-89
2021/07/07 04:14:24;;;;;;;13.13;4.47;;;16.60;90.50;;;;;;4948852;29;20059;-87
2021/07/07 04:16:56;;;;;;;12.10;4.72;;;16.60;90.30;;;;;;4949397;28;20038;-87
2021/07/07 04:19:22;;;;;;;14.02;4.68;;;16.70;90.10;;;;;;4949292;29;20031;-88
2021/07/07 04:21:47;;;;;;;10.85;4.32;;;16.70;90.60;;;;;;4948597;28;20126;-88
2021/07/07 04:24:13;;;;;;;16.00;4.95;;;16.70;89.90;;;;;;4945775;29;20122;-88
2021/07/07 04:26:39;;;;;;;13.77;4.88;;;16.70;90.30;;;;;;4945819;28;20464;-86
2021/07/07 04:29:08;;;;;;;14.30;5.03;;;16.70;90.00;;;;;;4948065;29;20038;-88
2021/07/07 04:31:34;;;;;;;12.98;4.65;;;16.70;89.30;;;;;;4949603;29;20032;-87
2021/07/07 04:34:00;;;;;;;13.95;4.03;;;16.70;90.10;;;;;;4949273;28;20028;-87
2021/07/07 04:36:25;;;;;;;14.52;4.53;;;16.70;89.70;;;;;;4949456;28;20039;-87
2021/07/07 04:38:51;;;;;;;10.88;4.03;;;16.70;89.00;;;;;;4949214;28;20131;-88
2021/07/07 04:41:16;;;;;;;11.15;4.10;;;16.70;88.70;;;;;;4949348;28;20383;-87
2021/07/07 04:43:42;;;;;;;11.82;4.68;;;16.70;88.40;;;;;;4949468;28;20016;-87
2021/07/07 04:46:09;;;;;;;11.40;4.28;;;16.80;89.30;;;;;;4949062;28;20024;-88
2021/07/07 04:48:34;;;;;;;14.40;4.15;;;16.80;88.00;;;;;;4949166;28;20016;-87
2021/07/07 04:51:00;;;;;;;10.13;4.63;;;16.80;88.20;;;;;;4949377;29;20385;-87
2021/07/07 04:53:25;;;;;;;14.48;4.07;;;16.80;88.20;;;;;;4949458;28;20036;-87
2021/07/07 04:55:51;;;;;;;16.17;4.90;;;16.90;88.50;;;;;;4949191;28;20170;-88
2021/07/07 04:58:17;;;;;;;15.98;4.80;;;16.90;89.10;;;;;;4949218;28;20483;-87
2021/07/07 05:00:42;;;;;;;17.13;4.05;;;16.90;87.80;;;;;;4948301;29;20031;-87
2021/07/07 05:03:08;;;;;;;13.98;4.18;;;16.90;87.50;;;;;;4945377;28;20063;-89
2021/07/07 05:05:33;;;;;;;10.90;4.18;;;16.90;87.50;;;;;;4948814;28;20059;-87
2021/07/07 05:07:59;;;;;;;15.32;5.47;;;16.90;87.50;;;;;;4915657;29;20024;-87
2021/07/07 05:10:24;;;;;;;13.43;4.53;;;17.00;87.90;;;;;;4915966;29;20118;-86
2021/07/07 05:12:50;;;;;;;15.10;5.07;;;16.90;87.90;;;;;;4913719;29;20495;-87
2021/07/07 05:15:16;;;;;;;9.35;4.32;;;17.00;87.70;;;;;;4917437;29;20028;-87
2021/07/07 05:17:42;;;;;;;14.13;5.13;;;17.00;87.40;;;;;;4917157;29;20032;-87
2021/07/07 05:20:09;;;;;;;15.85;4.35;;;17.00;87.50;;;;;;4917735;29;20475;-88
2021/07/07 05:22:34;;;;;;;12.02;4.43;;;17.10;87.60;;;;;;4917353;29;20423;-88
2021/07/07 05:25:00;;;;;;;14.23;4.05;;;17.10;86.80;;;;;;4917162;29;20047;-88
2021/07/07 05:27:25;;;;;;;13.57;4.03;;;17.10;86.80;;;;;;4917120;29;20028;-88
2021/07/07 05:29:51;;;;;;;12.48;4.03;;;17.20;87.50;;;;;;4917296;29;20028;-87
2021/07/07 05:32:22;;;;;;;12.07;4.38;;;17.20;87.90;;;;;;4917258;29;20483;-88
2021/07/07 05:34:48;;;;;;;;;;;17.30;88.00;;;;;;4944533;23;20043;-84
2021/07/07 05:37:15;;;;;;;16.50;4.05;;;17.20;87.90;;;;;;4933835;28;20034;-84
2021/07/07 05:39:41;;;;;;;13.45;4.30;;;17.30;86.50;;;;;;4947284;28;20031;-84
2021/07/07 05:42:06;;;;;;;11.23;4.10;;;17.30;86.20;;;;;;4931770;29;20102;-84
2021/07/07 05:44:32;;;;;;;11.55;4.03;;;17.40;87.30;;;;;;4947646;28;20122;-84
2021/07/07 05:46:58;;;;;;;15.43;4.18;;;17.40;86.40;;;;;;4931940;29;20111;-84
2021/07/07 05:49:23;;;;;;;16.70;4.35;;;17.40;86.50;;;;;;4938534;29;20036;-83
2021/07/07 05:51:49;;;;;;;14.00;3.97;;;17.40;86.00;;;;;;4947644;28;20035;-84
2021/07/07 05:54:14;;;;;;;13.52;3.70;;;17.50;85.90;;;;;;4947721;28;20375;-84
2021/07/07 05:56:40;;;;;;;13.45;4.07;;;17.50;86.50;;;;;;4947335;29;20032;-84
2021/07/07 05:59:05;;;;;;;12.88;3.88;;;17.60;86.20;;;;;;4933364;29;20074;-84
2021/07/07 06:01:31;;;;;;;11.18;3.97;;;17.60;86.50;;;;;;4934952;29;20067;-84
2021/07/07 06:03:56;;;;;;;9.88;4.03;;;17.60;86.70;;;;;;4952345;28;20042;-84
2021/07/07 06:06:22;;;;;;;11.82;4.00;;;17.60;86.30;;;;;;4954219;28;20037;-84
2021/07/07 06:08:48;;;;;;;9.60;3.55;;;17.70;86.20;;;;;;4953672;28;20038;-84
2021/07/07 06:11:13;;;;;;;10.18;3.33;;;17.70;86.20;;;;;;4953854;28;20038;-84
2021/07/07 06:13:39;;;;;;;8.63;3.53;;;17.70;86.00;;;;;;4969482;28;20078;-84
2021/07/07 06:16:04;;;;;;;17.45;4.47;;;17.70;86.30;;;;;;4953908;28;20039;-84
2021/07/07 06:18:30;;;;;;;10.70;3.63;;;17.70;85.90;;;;;;4953618;28;20077;-84
2021/07/07 06:20:55;;;;;;;10.65;3.85;;;17.80;86.10;;;;;;4953831;28;20115;-84
2021/07/07 06:23:21;;;;;;;10.50;3.50;;;17.80;86.40;;;;;;4953933;28;20026;-84
2021/07/07 06:25:46;;;;;;;13.13;3.80;;;17.90;85.90;;;;;;4953817;28;20077;-84
2021/07/07 06:28:12;;;;;;;7.32;3.25;;;18.00;85.30;;;;;;4969396;28;20391;-84
2021/07/07 06:30:37;;;;;;;19.30;4.38;;;18.00;84.90;;;;;;4953713;28;20041;-84
2021/07/07 06:33:03;;;;;;;12.20;3.55;;;17.90;84.10;;;;;;4953407;28;20371;-84
2021/07/07 06:35:31;;;;;;;12.15;3.20;;;18.00;84.30;;;;;;4945205;28;20438;-84
2021/07/07 06:37:57;;;;;;;10.45;3.05;;;18.00;84.00;;;;;;4953785;28;20422;-88
2021/07/07 06:40:22;;;;;;;11.23;3.60;;;18.00;84.20;;;;;;4953682;28;20057;-85
2021/07/07 06:42:48;;;;;;;19.13;3.75;;;18.00;83.50;;;;;;4953699;28;20029;-85
2021/07/07 06:45:16;;;;;;;10.48;3.42;;;18.10;82.70;;;;;;4953600;28;20026;-84
2021/07/07 06:47:42;;;;;;;8.07;2.83;;;18.10;82.60;;;;;;4950094;28;20033;-85
2021/07/07 06:50:09;;;;;;;13.27;3.08;;;18.10;82.70;;;;;;4935181;28;20023;-84
2021/07/07 06:52:34;;;;;;;10.20;3.22;;;18.20;81.80;;;;;;4953404;28;20038;-84
2021/07/07 06:55:00;;;;;;;11.63;3.25;;;18.20;82.10;;;;;;4948957;29;20027;-84
2021/07/07 06:57:26;;;;;;;10.43;3.42;;;18.20;82.00;;;;;;4949759;29;20055;-84
2021/07/07 06:59:52;;;;;;;10.73;3.03;;;18.20;82.50;;;;;;4965896;28;20031;-84
2021/07/07 07:02:17;;;;;;;7.22;2.90;;;18.20;82.00;;;;;;4951409;28;20631;-85
2021/07/07 07:04:43;;;;;;;14.73;3.22;;;18.20;80.60;;;;;;4952754;28;20067;-84
2021/07/07 07:07:09;;;;;;;12.70;3.67;;;18.30;80.20;;;;;;4952452;28;20065;-84
2021/07/07 07:09:34;;;;;;;10.35;3.33;;;18.30;80.60;;;;;;4936436;28;20509;-84
2021/07/07 07:12:00;;;;;;;12.32;3.53;;;18.30;80.40;;;;;;4968924;28;20093;-84
2021/07/07 07:14:25;;;;;;;10.40;3.10;;;18.30;81.40;;;;;;4952765;28;20038;-84
2021/07/07 07:16:52;;;;;;;14.75;3.13;;;18.30;82.00;;;;;;4946290;28;20405;-85
2021/07/07 07:19:17;;;;;;;7.22;3.25;;;18.30;82.80;;;;;;4952470;28;20041;-84
2021/07/07 07:21:43;;;;;;;12.88;2.83;;;18.30;82.30;;;;;;4945148;28;20022;-85
2021/07/07 07:24:09;;;;;;;9.13;2.92;;;18.30;82.00;;;;;;4952483;28;20066;-85
2021/07/07 07:26:34;;;;;;;8.43;3.20;;;18.30;82.60;;;;;;4952521;28;20029;-84
2021/07/07 07:29:00;;;;;;;15.82;3.60;;;18.40;82.90;;;;;;4952384;28;20113;-84
2021/07/07 07:31:26;;;;;;;10.80;3.60;;;18.40;82.70;;;;;;4952680;28;20034;-84
2021/07/07 07:33:51;;;;;;;15.77;3.42;;;18.50;81.70;;;;;;4952352;28;20027;-84
2021/07/07 07:36:18;;;;;;;8.40;3.08;;;18.50;81.70;;;;;;4936426;28;20042;-85
2021/07/07 07:38:47;;;;;;;13.57;3.33;;;18.60;81.70;;;;;;4936426;28;20031;-85
2021/07/07 07:41:12;;;;;;;8.45;3.05;;;18.60;81.80;;;;;;4936908;28;20033;-84
2021/07/07 07:43:38;;;;;;;11.60;3.67;;;18.60;81.10;;;;;;4952155;28;20035;-84
2021/07/07 07:46:03;;;;;;;8.60;2.90;;;18.70;81.10;;;;;;4952318;28;20117;-84
2021/07/07 07:48:29;;;;;;;8.48;3.45;;;18.70;81.40;;;;;;4935984;28;20026;-84
2021/07/07 07:50:55;;;;;;;13.00;3.35;;;18.80;81.00;;;;;;4952172;28;20062;-84
2021/07/07 07:53:20;;;;;;;13.48;3.10;;;18.80;80.70;;;;;;4952074;28;20039;-84
2021/07/07 07:55:46;;;;;;;11.25;3.53;;;18.80;81.00;;;;;;4952188;28;20089;-84
2021/07/07 07:58:17;;;;;;;9.27;2.90;;;18.90;79.90;;;;;;4951879;28;20039;-85
2021/07/07 08:00:43;;;;;;;9.40;3.17;;;18.90;79.20;;;;;;4952147;28;20446;-84
2021/07/07 08:03:08;;;;;;;9.93;3.13;;;19.00;78.00;;;;;;4951874;28;20759;-85
2021/07/07 08:05:34;;;;;;;10.13;2.65;;;19.00;77.50;;;;;;4941794;29;20031;-85
2021/07/07 08:08:02;;;;;;;11.90;3.03;;;19.00;77.70;;;;;;4930695;29;20042;-85
2021/07/07 08:10:27;;;;;;;12.23;3.28;;;19.10;78.70;;;;;;4931288;29;20023;-85
2021/07/07 08:12:53;;;;;;;9.40;3.10;;;19.10;77.10;;;;;;4930721;29;20042;-84
2021/07/07 08:15:19;;;;;;;13.57;2.67;;;19.10;78.30;;;;;;4930900;29;20804;-84
2021/07/07 08:17:46;;;;;;;8.70;2.80;;;19.20;77.20;;;;;;4930508;29;20540;-84
2021/07/07 08:20:11;;;;;;;16.13;3.40;;;19.20;78.70;;;;;;4930674;28;20042;-85
2021/07/07 08:22:37;;;;;;;15.60;3.08;;;19.20;78.60;;;;;;4946747;28;20027;-84
2021/07/07 08:25:05;;;;;;;9.18;3.33;;;19.30;78.20;;;;;;4935534;28;20034;-84
2021/07/07 08:27:30;;;;;;;13.45;2.78;;;19.30;78.40;;;;;;4951581;28;20026;-85
2021/07/07 08:29:56;;;;;;;13.55;2.95;;;19.40;76.30;;;;;;4951660;28;20161;-84
2021/07/07 08:32:21;;;;;;;10.70;2.92;;;19.40;76.20;;;;;;4951622;28;20027;-84
2021/07/07 08:34:47;;;;;;;13.38;2.80;;;19.40;76.30;;;;;;4949733;28;20041;-84
2021/07/07 08:37:13;;;;;;;12.90;2.80;;;19.50;76.70;;;;;;4946936;29;20118;-84
2021/07/07 08:39:42;;;;;;;12.32;2.50;;;19.50;74.90;;;;;;4931916;29;20372;-84
2021/07/07 08:42:08;;;;;;;9.00;2.78;;;19.60;75.80;;;;;;4932367;29;20058;-84
2021/07/07 08:44:34;;;;;;;12.88;3.17;;;19.60;75.00;;;;;;4916228;29;20023;-84
2021/07/07 08:47:00;;;;;;;8.13;2.45;;;19.60;73.50;;;;;;4932053;29;20028;-85
2021/07/07 08:49:26;;;;;;;9.20;2.85;;;19.70;73.00;;;;;;4934699;29;20035;-85
2021/07/07 08:51:51;;;;;;;12.93;3.25;;;19.70;72.70;;;;;;4931771;29;20663;-85
2021/07/07 08:54:20;;;;;;;10.43;3.20;;;19.80;73.20;;;;;;4915810;29;20708;-84
2021/07/07 08:56:46;;;;;;;11.20;2.58;;;19.80;73.80;;;;;;4916593;29;20031;-85
2021/07/07 08:59:13;;;;;;;11.10;2.47;;;19.90;72.20;;;;;;4947411;28;20526;-85
2021/07/07 09:02:02;;;;;;;11.10;2.75;;;19.90;71.10;;;;;;4932014;29;20039;-84
2021/07/07 09:04:36;;;;;;;10.48;2.60;;;20.00;69.00;;;;;;4947518;29;20023;-84
2021/07/07 09:07:07;;;;;;;11.05;2.97;;;20.00;70.70;;;;;;4947605;28;20076;-85
2021/07/07 09:09:36;;;;;;;10.47;2.70;;;20.10;71.70;;;;;;4932234;29;20118;-84
2021/07/07 09:12:16;;;;;;;8.75;2.40;;;20.10;70.30;;;;;;4931914;28;20903;-84
2021/07/07 09:14:43;;;;;;;10.55;2.80;;;20.10;69.20;;;;;;4948388;28;20280;-84
2021/07/07 09:17:13;;;;;;;7.95;2.05;;;20.10;68.90;;;;;;4931971;29;20443;-84
2021/07/07 09:19:39;;;;;;;6.70;2.15;;;20.10;68.60;;;;;;4931654;28;20502;-84
2021/07/07 09:22:06;;;;;;;9.75;2.60;;;20.10;66.60;;;;;;4931697;28;20023;-85
2021/07/07 09:24:32;;;;;;;8.13;2.50;;;20.10;65.30;;;;;;4931795;29;20023;-85
2021/07/07 09:27:18;;;;;;;9.45;2.30;;;20.10;65.50;;;;;;4957680;28;20046;-85
2021/07/07 09:29:46;;;;;;;10.00;2.15;;;20.10;64.70;;;;;;4966097;28;20047;-85
2021/07/07 09:32:12;;;;;;;13.10;2.63;;;20.20;64.10;;;;;;4951647;28;20034;-85
2021/07/07 09:34:38;;;;;;;9.65;2.00;;;20.20;64.60;;;;;;4970732;28;20058;-85
2021/07/07 09:37:04;;;;;;;9.02;2.03;;;20.30;64.00;;;;;;4954508;28;20066;-85
2021/07/07 09:39:30;;;;;;;7.75;2.20;;;20.40;62.30;;;;;;4949618;29;20092;-85
2021/07/07 09:41:56;;;;;;;5.88;2.03;;;20.50;61.50;;;;;;4935209;29;20045;-85
2021/07/07 09:44:22;;;;;;;10.27;1.92;;;20.60;62.80;;;;;;4935394;28;20078;-85
2021/07/07 09:46:47;;;;;;;7.25;2.00;;;20.70;60.30;;;;;;4934808;29;20031;-84
2021/07/07 09:49:13;;;;;;;6.28;2.33;;;20.70;61.40;;;;;;4934668;29;20035;-84
2021/07/07 09:51:44;;;;;;;6.95;2.08;;;20.70;59.60;;;;;;4940001;28;20034;-84
2021/07/07 09:54:10;;;;;;;8.43;2.30;;;20.70;61.40;;;;;;4954731;28;20053;-85
2021/07/07 09:56:35;;;;;;;7.55;2.47;;;20.70;60.90;;;;;;4969760;28;20042;-84
2021/07/07 09:59:01;;;;;;;8.65;2.15;;;20.70;61.90;;;;;;4953677;28;20808;-84
2021/07/07 10:01:27;;;;;;;8.38;2.13;;;20.70;59.20;;;;;;4954036;28;20130;-85
2021/07/07 10:03:52;;;;;;;8.38;2.28;;;20.70;60.20;;;;;;4937888;28;20050;-85
2021/07/07 10:06:18;;;;;;;13.13;2.40;;;20.80;61.70;;;;;;4937388;28;20054;-85
2021/07/07 10:08:45;;;;;;;10.60;2.05;;;20.80;60.80;;;;;;4937389;28;20654;-84
2021/07/07 10:11:10;;;;;;;8.25;2.00;;;20.90;59.90;;;;;;4953936;28;20034;-84
2021/07/07 10:13:36;;;;;;;10.43;2.10;;;20.90;59.70;;;;;;4937432;28;20027;-84
2021/07/07 10:16:01;;;;;;;7.93;2.33;;;20.90;59.10;;;;;;4937822;28;20027;-85
2021/07/07 10:18:27;;;;;;;13.40;2.22;;;21.00;58.50;;;;;;4953317;28;20053;-84
2021/07/07 10:20:52;;;;;;;6.00;2.08;;;21.10;58.80;;;;;;4953730;28;20050;-85
2021/07/07 10:23:18;;;;;;;7.97;2.22;;;21.10;58.10;;;;;;4953273;28;20026;-85
2021/07/07 10:25:43;;;;;;;10.20;2.45;;;21.20;59.30;;;;;;4953660;28;20042;-85
2021/07/07 10:28:11;;;;;;;6.10;2.05;;;21.30;59.40;;;;;;4953291;28;20528;-85
2021/07/07 10:30:56;;;;;;;10.55;2.47;;;21.40;58.00;;;;;;4953427;28;20081;-86
2021/07/07 10:33:24;;;;;;;10.95;2.33;;;21.40;58.80;;;;;;4957209;28;20031;-86
2021/07/07 10:35:50;;;;;;;6.65;2.03;;;21.40;58.40;;;;;;4934293;28;20057;-86
2021/07/07 10:38:16;;;;;;;8.50;1.90;;;21.40;58.30;;;;;;4917956;29;20487;-86
2021/07/07 10:40:48;;;;;;;6.60;2.10;;;21.40;56.80;;;;;;4961669;28;20063;-86
2021/07/07 10:43:43;;;;;;;6.32;1.98;;;21.40;57.40;;;;;;4954560;28;20058;-86
2021/07/07 10:46:09;;;;;;;6.40;1.90;;;21.40;58.30;;;;;;4952409;28;20023;-85
2021/07/07 10:48:34;;;;;;;7.97;2.22;;;21.30;59.20;;;;;;4949961;28;20019;-86
2021/07/07 10:51:24;;;;;;;7.63;2.25;;;21.30;58.30;;;;;;4966350;28;20026;-86
2021/07/07 10:53:49;;;;;;;12.02;2.35;;;21.20;57.60;;;;;;4960289;28;20046;-86
2021/07/07 10:56:15;;;;;;;10.70;2.20;;;21.20;59.00;;;;;;4960649;28;20398;-86
2021/07/07 10:58:42;;;;;;;7.72;2.28;;;21.10;58.60;;;;;;4967480;28;20051;-86
2021/07/07 11:01:33;;;;;;;8.90;2.33;;;21.10;60.00;;;;;;4970156;28;20101;-86
2021/07/07 11:04:00;;;;;;;5.55;1.92;;;21.10;58.80;;;;;;4967689;28;20030;-85
2021/07/07 11:06:27;;;;;;;8.35;2.03;;;21.10;59.90;;;;;;4952980;28;20031;-85
2021/07/07 11:09:12;;;;;;;10.10;2.42;;;21.20;59.40;;;;;;4952221;28;20113;-85
2021/07/07 11:11:39;;;;;;;8.57;2.00;;;21.20;60.00;;;;;;4968669;28;20027;-85
2021/07/07 11:14:19;;;;;;;6.00;1.67;;;21.30;58.90;;;;;;4938919;29;20097;-85
2021/07/07 11:16:46;;;;;;;7.07;2.17;;;21.50;58.20;;;;;;4955346;28;20177;-85
2021/07/07 11:19:36;;;;;;;12.13;2.30;;;21.60;58.80;;;;;;4933532;28;20444;-85
2021/07/07 11:22:02;;;;;;;10.38;2.17;;;21.60;58.10;;;;;;4949473;28;20112;-85
2021/07/07 11:24:28;;;;;;;7.97;2.33;;;21.60;57.50;;;;;;4917984;29;20045;-85
2021/07/07 11:26:54;;;;;;;8.65;2.03;;;21.60;55.90;;;;;;4933923;29;20115;-85
2021/07/07 11:29:21;;;;;;;11.65;2.00;;;21.60;56.90;;;;;;4949699;28;20035;-85
2021/07/07 11:31:46;;;;;;;8.20;2.03;;;21.60;57.70;;;;;;4933428;29;20027;-85
2021/07/07 11:34:12;;;;;;;8.77;1.92;;;21.70;57.70;;;;;;4941403;28;20093;-86
2021/07/07 11:36:37;;;;;;;7.35;2.03;;;21.70;58.50;;;;;;4943552;29;20054;-85
2021/07/07 11:39:05;;;;;;;7.80;1.63;;;21.70;57.10;;;;;;4961408;23;20054;-86
2021/07/07 11:41:30;;;;;;;9.65;1.75;;;21.70;57.60;;;;;;4961418;28;20118;-87
2021/07/07 11:43:56;;;;;;;8.48;2.50;;;21.80;58.10;;;;;;4968841;28;20118;-86
2021/07/07 11:46:23;;;;;;;6.28;2.00;;;21.80;56.80;;;;;;4968430;28;20030;-85
2021/07/07 11:48:49;;;;;;;7.82;1.70;;;21.80;56.70;;;;;;4967342;28;20382;-87
2021/07/07 11:51:22;;;;;;;7.80;2.22;;;21.80;56.00;;;;;;4933081;29;20555;-87
2021/07/07 11:53:51;;;;;;;5.55;1.80;;;21.90;57.60;;;;;;4949149;29;20054;-86
2021/07/07 11:56:18;;;;;;;8.75;1.77;;;21.90;58.00;;;;;;4948105;28;20113;-86
2021/07/07 11:58:45;;;;;;;5.80;2.10;;;22.00;58.40;;;;;;4916246;29;20082;-86
2021/07/07 12:01:17;;;;;;;4.10;1.30;;;22.00;57.50;;;;;;4932893;28;20058;-87
2021/07/07 12:03:51;;;;;;;10.82;2.40;;;22.10;57.00;;;;;;4932833;29;20550;-86
2021/07/07 12:06:16;;;;;;;6.55;1.98;;;22.20;56.10;;;;;;4932350;29;20038;-86
2021/07/07 12:08:44;;;;;;;8.88;2.05;;;22.30;58.00;;;;;;4932479;29;20034;-87
2021/07/07 12:11:17;;;;;;;8.75;1.95;;;22.40;57.50;;;;;;4927511;28;20130;-86
2021/07/07 12:13:50;;;;;;;6.38;1.60;;;22.40;56.00;;;;;;4915715;29;20027;-87
2021/07/07 12:16:24;;;;;;;6.72;1.65;;;22.40;56.10;;;;;;4916962;29;20034;-86
2021/07/07 12:18:52;;;;;;;6.18;1.80;;;22.50;54.50;;;;;;4916263;29;20791;-86
2021/07/07 12:21:23;;;;;;;3.30;1.83;;;22.50;55.20;;;;;;4916787;29;20031;-86
2021/07/07 12:23:59;;;;;;;8.98;2.00;;;22.60;55.30;;;;;;4949614;29;20027;-86
2021/07/07 12:26:29;;;;;;;10.85;1.90;;;22.50;55.20;;;;;;4932804;29;20579;-87
2021/07/07 12:28:55;;;;;;;6.72;1.90;;;22.50;55.40;;;;;;4916684;29;20027;-86
2021/07/07 12:31:21;;;;;;;7.55;1.85;;;22.50;55.50;;;;;;4916819;29;20027;-86
2021/07/07 12:33:47;;;;;;;4.60;1.45;;;22.40;55.90;;;;;;4932709;29;20106;-86
2021/07/07 12:36:13;;;;;;;7.65;2.10;;;22.50;55.80;;;;;;4916761;29;20170;-86
2021/07/07 12:38:45;;;;;;;6.63;1.83;;;22.50;56.30;;;;;;4916126;29;20129;-85